sensor_id;sensor_type;location;lat;lon;timestamp;temperature;humidity
53274;DHT22;39163;52.696;6.758;2022-09-13T00:51:29;17.40;99.90
53274;DHT22;39163;52.696;6.758;2022-09-13T00:54:03;17.40;99.90
53274;DHT22;39163;52.696;6.758;2022-09-13T00:56:53;17.40;99.90
53274;DHT22;39163;52.696;6.758;2022-09-13T00:59:49;17.40;99.90
53274;DHT22;39163;52.696;6.758;2022-09-13T01:02:26;17.50;99.90
53274;DHT22;39163;52.696;6.758;2022-09-13T01:09:28;17.50;99.90
53274;DHT22;39163;52.696;6.758;2022-09-13T01:12:50;17.50;99.90
53274;DHT22;39163;52.696;6.758;2022-09-13T01:52:56;17.40;99.90
53274;DHT22;39163;52.696;6.758;2022-09-13T04:50:28;17.60;99.90
53274;DHT22;39163;52.696;6.758;2022-09-13T05:05:04;17.60;99.90
53274;DHT22;39163;52.696;6.758;2022-09-13T05:08:35;17.60;99.90
53274;DHT22;39163;52.696;6.758;2022-09-13T05:11:13;17.60;99.90
53274;DHT22;39163;52.696;6.758;2022-09-13T05:17:28;17.60;99.90
53274;DHT22;39163;52.696;6.758;2022-09-13T05:20:09;17.60;99.90
53274;DHT22;39163;52.696;6.758;2022-09-13T05:26:47;17.60;99.90
53274;DHT22;39163;52.696;6.758;2022-09-13T05:29:12;17.60;99.90
53274;DHT22;39163;52.696;6.758;2022-09-13T05:31:40;17.60;99.90
53274;DHT22;39163;52.696;6.758;2022-09-13T05:34:14;17.60;99.90
53274;DHT22;39163;52.696;6.758;2022-09-13T05:36:42;17.70;99.90
53274;DHT22;39163;52.696;6.758;2022-09-13T05:39:13;17.70;99.90
53274;DHT22;39163;52.696;6.758;2022-09-13T05:41:40;17.70;99.90
53274;DHT22;39163;52.696;6.758;2022-09-13T05:44:05;17.70;99.90
53274;DHT22;39163;52.696;6.758;2022-09-13T05:46:31;17.70;99.90
53274;DHT22;39163;52.696;6.758;2022-09-13T05:48:57;17.70;99.90
53274;DHT22;39163;52.696;6.758;2022-09-13T05:51:25;17.70;99.90
53274;DHT22;39163;52.696;6.758;2022-09-13T05:53:53;17.70;99.90
53274;DHT22;39163;52.696;6.758;2022-09-13T05:56:25;17.70;99.90
53274;DHT22;39163;52.696;6.758;2022-09-13T05:58:52;17.70;99.90
53274;DHT22;39163;52.696;6.758;2022-09-13T06:01:21;17.80;99.90
53274;DHT22;39163;52.696;6.758;2022-09-13T06:03:51;17.80;99.90
53274;DHT22;39163;52.696;6.758;2022-09-13T06:06:18;17.70;99.90
53274;DHT22;39163;52.696;6.758;2022-09-13T06:08:44;17.80;99.90
53274;DHT22;39163;52.696;6.758;2022-09-13T06:11:11;17.80;99.90
53274;DHT22;39163;52.696;6.758;2022-09-13T06:13:38;17.90;99.90
53274;DHT22;39163;52.696;6.758;2022-09-13T06:16:06;17.90;99.90
53274;DHT22;39163;52.696;6.758;2022-09-13T06:18:32;17.90;99.90
53274;DHT22;39163;52.696;6.758;2022-09-13T06:21:19;17.90;99.90
53274;DHT22;39163;52.696;6.758;2022-09-13T06:23:49;17.90;99.90
53274;DHT22;39163;52.696;6.758;2022-09-13T06:26:18;18.00;99.90
53274;DHT22;39163;52.696;6.758;2022-09-13T06:28:51;18.00;99.90
53274;DHT22;39163;52.696;6.758;2022-09-13T06:31:19;18.00;99.90
53274;DHT22;39163;52.696;6.758;2022-09-13T06:33:45;18.00;99.90
53274;DHT22;39163;52.696;6.758;2022-09-13T06:36:13;18.10;99.90
53274;DHT22;39163;52.696;6.758;2022-09-13T06:38:40;18.10;99.90
53274;DHT22;39163;52.696;6.758;2022-09-13T06:41:10;18.20;99.90
53274;DHT22;39163;52.696;6.758;2022-09-13T06:43:36;18.20;99.90
53274;DHT22;39163;52.696;6.758;2022-09-13T06:46:14;18.30;99.90
53274;DHT22;39163;52.696;6.758;2022-09-13T06:48:42;18.30;99.90
53274;DHT22;39163;52.696;6.758;2022-09-13T06:51:11;18.40;99.90
53274;DHT22;39163;52.696;6.758;2022-09-13T06:53:38;18.40;99.90
53274;DHT22;39163;52.696;6.758;2022-09-13T06:56:15;18.40;99.90
53274;DHT22;39163;52.696;6.758;2022-09-13T06:58:43;18.40;99.90
53274;DHT22;39163;52.696;6.758;2022-09-13T07:01:10;18.40;99.90
53274;DHT22;39163;52.696;6.758;2022-09-13T07:03:47;18.50;99.90
53274;DHT22;39163;52.696;6.758;2022-09-13T07:06:16;18.50;99.90
53274;DHT22;39163;52.696;6.758;2022-09-13T07:08:44;18.50;99.90
53274;DHT22;39163;52.696;6.758;2022-09-13T07:11:11;18.50;99.90
53274;DHT22;39163;52.696;6.758;2022-09-13T07:13:38;18.50;99.90
53274;DHT22;39163;52.696;6.758;2022-09-13T07:16:06;18.40;99.90
53274;DHT22;39163;52.696;6.758;2022-09-13T07:18:33;18.40;99.90
53274;DHT22;39163;52.696;6.758;2022-09-13T07:21:07;18.40;99.90
53274;DHT22;39163;52.696;6.758;2022-09-13T07:23:35;18.40;99.90
53274;DHT22;39163;52.696;6.758;2022-09-13T07:26:01;18.30;99.90
53274;DHT22;39163;52.696;6.758;2022-09-13T07:31:06;18.20;99.90
53274;DHT22;39163;52.696;6.758;2022-09-13T07:33:32;18.20;99.90
53274;DHT22;39163;52.696;6.758;2022-09-13T07:35:58;18.20;99.90
53274;DHT22;39163;52.696;6.758;2022-09-13T07:38:25;18.20;99.90
53274;DHT22;39163;52.696;6.758;2022-09-13T07:40:55;18.20;99.90
53274;DHT22;39163;52.696;6.758;2022-09-13T07:43:23;18.20;99.90
53274;DHT22;39163;52.696;6.758;2022-09-13T07:46:19;18.20;99.90
53274;DHT22;39163;52.696;6.758;2022-09-13T07:48:46;18.20;99.90
53274;DHT22;39163;52.696;6.758;2022-09-13T07:51:17;18.20;99.90
53274;DHT22;39163;52.696;6.758;2022-09-13T07:53:48;18.30;99.90
53274;DHT22;39163;52.696;6.758;2022-09-13T07:56:19;18.30;99.90
53274;DHT22;39163;52.696;6.758;2022-09-13T07:58:47;18.40;99.90
53274;DHT22;39163;52.696;6.758;2022-09-13T08:01:19;18.50;99.90
53274;DHT22;39163;52.696;6.758;2022-09-13T08:03:56;18.60;99.90
53274;DHT22;39163;52.696;6.758;2022-09-13T08:06:24;18.70;99.90
53274;DHT22;39163;52.696;6.758;2022-09-13T08:08:50;18.80;99.90
53274;DHT22;39163;52.696;6.758;2022-09-13T08:11:19;19.00;99.90
53274;DHT22;39163;52.696;6.758;2022-09-13T08:13:46;19.20;99.90
53274;DHT22;39163;52.696;6.758;2022-09-13T08:16:12;19.50;99.90
53274;DHT22;39163;52.696;6.758;2022-09-13T08:18:43;19.80;99.90
53274;DHT22;39163;52.696;6.758;2022-09-13T08:21:10;19.80;99.90
53274;DHT22;39163;52.696;6.758;2022-09-13T08:23:35;19.80;99.90
53274;DHT22;39163;52.696;6.758;2022-09-13T08:26:02;19.70;99.90
53274;DHT22;39163;52.696;6.758;2022-09-13T08:28:35;19.70;99.90
53274;DHT22;39163;52.696;6.758;2022-09-13T08:31:06;19.80;99.90
53274;DHT22;39163;52.696;6.758;2022-09-13T08:33:36;19.80;99.90
53274;DHT22;39163;52.696;6.758;2022-09-13T08:36:03;19.90;99.90
53274;DHT22;39163;52.696;6.758;2022-09-13T08:38:29;19.80;99.90
53274;DHT22;39163;52.696;6.758;2022-09-13T08:41:04;19.80;99.90
53274;DHT22;39163;52.696;6.758;2022-09-13T08:46:48;19.80;99.90
53274;DHT22;39163;52.696;6.758;2022-09-13T08:49:19;19.90;99.90
53274;DHT22;39163;52.696;6.758;2022-09-13T08:51:50;20.00;99.90
53274;DHT22;39163;52.696;6.758;2022-09-13T08:54:19;20.20;99.90
53274;DHT22;39163;52.696;6.758;2022-09-13T09:02:44;20.40;99.90
53274;DHT22;39163;52.696;6.758;2022-09-13T09:05:19;20.50;99.90
53274;DHT22;39163;52.696;6.758;2022-09-13T09:07:46;20.50;99.90
53274;DHT22;39163;52.696;6.758;2022-09-13T09:10:24;20.50;99.90
53274;DHT22;39163;52.696;6.758;2022-09-13T09:12:56;20.50;99.90
53274;DHT22;39163;52.696;6.758;2022-09-13T09:15:27;20.70;99.90
53274;DHT22;39163;52.696;6.758;2022-09-13T09:18:02;21.00;99.90
53274;DHT22;39163;52.696;6.758;2022-09-13T09:20:32;21.40;99.90
53274;DHT22;39163;52.696;6.758;2022-09-13T09:23:05;21.80;99.90
53274;DHT22;39163;52.696;6.758;2022-09-13T09:25:33;22.10;99.90
53274;DHT22;39163;52.696;6.758;2022-09-13T09:27:59;22.00;99.90
53274;DHT22;39163;52.696;6.758;2022-09-13T09:30:35;21.80;99.90
53274;DHT22;39163;52.696;6.758;2022-09-13T09:33:17;21.80;99.90
53274;DHT22;39163;52.696;6.758;2022-09-13T09:36:05;21.70;99.90
53274;DHT22;39163;52.696;6.758;2022-09-13T09:38:41;21.70;99.90
53274;DHT22;39163;52.696;6.758;2022-09-13T09:41:29;21.80;99.90
53274;DHT22;39163;52.696;6.758;2022-09-13T09:46:37;21.80;99.90
53274;DHT22;39163;52.696;6.758;2022-09-13T09:49:20;21.90;99.90
53274;DHT22;39163;52.696;6.758;2022-09-13T09:52:09;22.00;99.90
53274;DHT22;39163;52.696;6.758;2022-09-13T09:54:36;22.00;99.90
53274;DHT22;39163;52.696;6.758;2022-09-13T09:57:04;22.40;99.90
53274;DHT22;39163;52.696;6.758;2022-09-13T09:59:33;22.70;99.90
53274;DHT22;39163;52.696;6.758;2022-09-13T10:02:01;22.90;99.90
53274;DHT22;39163;52.696;6.758;2022-09-13T10:04:29;23.00;99.90
53274;DHT22;39163;52.696;6.758;2022-09-13T10:07:30;23.20;99.90
53274;DHT22;39163;52.696;6.758;2022-09-13T10:09:59;23.50;99.90
53274;DHT22;39163;52.696;6.758;2022-09-13T10:12:36;23.40;99.90
53274;DHT22;39163;52.696;6.758;2022-09-13T10:15:17;23.30;99.90
53274;DHT22;39163;52.696;6.758;2022-09-13T10:18:20;23.30;99.90
53274;DHT22;39163;52.696;6.758;2022-09-13T10:23:44;23.80;99.90
53274;DHT22;39163;52.696;6.758;2022-09-13T10:26:13;23.80;99.90
53274;DHT22;39163;52.696;6.758;2022-09-13T10:28:58;23.80;99.90
53274;DHT22;39163;52.696;6.758;2022-09-13T10:31:29;23.90;99.90
53274;DHT22;39163;52.696;6.758;2022-09-13T10:34:00;24.30;99.90
53274;DHT22;39163;52.696;6.758;2022-09-13T10:36:37;24.50;99.90
53274;DHT22;39163;52.696;6.758;2022-09-13T10:39:16;24.70;99.90
53274;DHT22;39163;52.696;6.758;2022-09-13T10:41:58;24.40;99.90
53274;DHT22;39163;52.696;6.758;2022-09-13T10:44:44;24.40;99.90
53274;DHT22;39163;52.696;6.758;2022-09-13T10:47:20;24.30;99.90
53274;DHT22;39163;52.696;6.758;2022-09-13T10:49:51;24.30;99.90
53274;DHT22;39163;52.696;6.758;2022-09-13T10:52:41;24.20;99.30
53274;DHT22;39163;52.696;6.758;2022-09-13T10:57:50;24.60;99.90
53274;DHT22;39163;52.696;6.758;2022-09-13T11:00:18;24.70;98.80
53274;DHT22;39163;52.696;6.758;2022-09-13T11:09:09;25.50;97.00
53274;DHT22;39163;52.696;6.758;2022-09-13T11:11:55;25.40;96.00
53274;DHT22;39163;52.696;6.758;2022-09-13T11:14:30;25.30;97.00
53274;DHT22;39163;52.696;6.758;2022-09-13T11:17:25;24.90;97.00
53274;DHT22;39163;52.696;6.758;2022-09-13T11:25:36;24.80;97.30
53274;DHT22;39163;52.696;6.758;2022-09-13T11:31:24;25.10;98.00
53274;DHT22;39163;52.696;6.758;2022-09-13T11:34:04;25.00;96.10
53274;DHT22;39163;52.696;6.758;2022-09-13T11:39:35;25.10;98.00
53274;DHT22;39163;52.696;6.758;2022-09-13T11:55:26;25.80;97.10
53274;DHT22;39163;52.696;6.758;2022-09-13T11:58:08;26.00;96.90
53274;DHT22;39163;52.696;6.758;2022-09-13T12:00:42;26.20;96.00
53274;DHT22;39163;52.696;6.758;2022-09-13T12:03:13;26.30;95.90
53274;DHT22;39163;52.696;6.758;2022-09-13T12:05:52;26.60;96.90
53274;DHT22;39163;52.696;6.758;2022-09-13T12:08:24;26.10;95.00
53274;DHT22;39163;52.696;6.758;2022-09-13T12:13:29;25.70;96.80
53274;DHT22;39163;52.696;6.758;2022-09-13T12:16:06;25.50;96.60
53274;DHT22;39163;52.696;6.758;2022-09-13T12:18:48;25.60;96.40
53274;DHT22;39163;52.696;6.758;2022-09-13T12:21:20;25.50;96.30
53274;DHT22;39163;52.696;6.758;2022-09-13T12:26:36;25.80;95.70
53274;DHT22;39163;52.696;6.758;2022-09-13T12:29:23;25.80;94.80
53274;DHT22;39163;52.696;6.758;2022-09-13T12:31:51;26.10;96.10
53274;DHT22;39163;52.696;6.758;2022-09-13T12:34:34;26.50;95.60
53274;DHT22;39163;52.696;6.758;2022-09-13T12:37:25;26.80;95.40
53274;DHT22;39163;52.696;6.758;2022-09-13T12:54:31;26.30;93.50
53274;DHT22;39163;52.696;6.758;2022-09-13T12:57:17;26.50;95.20
53274;DHT22;39163;52.696;6.758;2022-09-13T13:02:42;26.70;94.90
53274;DHT22;39163;52.696;6.758;2022-09-13T13:05:36;26.90;94.50
53274;DHT22;39163;52.696;6.758;2022-09-13T13:08:06;26.80;93.50
53274;DHT22;39163;52.696;6.758;2022-09-13T13:10:41;26.50;92.40
53274;DHT22;39163;52.696;6.758;2022-09-13T13:13:19;26.50;94.20
53274;DHT22;39163;52.696;6.758;2022-09-13T13:18:25;26.30;93.20
53274;DHT22;39163;52.696;6.758;2022-09-13T13:26:12;26.10;94.30
53274;DHT22;39163;52.696;6.758;2022-09-13T13:29:04;26.00;93.00
53274;DHT22;39163;52.696;6.758;2022-09-13T13:36:27;25.70;93.40
53274;DHT22;39163;52.696;6.758;2022-09-13T13:38:54;25.60;93.10
53274;DHT22;39163;52.696;6.758;2022-09-13T13:44:00;25.70;94.50
53274;DHT22;39163;52.696;6.758;2022-09-13T13:46:31;25.70;93.10
53274;DHT22;39163;52.696;6.758;2022-09-13T13:57:35;25.80;92.30
53274;DHT22;39163;52.696;6.758;2022-09-13T14:00:20;25.70;92.70
53274;DHT22;39163;52.696;6.758;2022-09-13T17:41:32;19.40;99.90
53274;DHT22;39163;52.696;6.758;2022-09-13T17:43:58;19.30;99.90
53274;DHT22;39163;52.696;6.758;2022-09-13T17:46:26;19.20;99.90
53274;DHT22;39163;52.696;6.758;2022-09-13T17:48:55;19.10;99.90
53274;DHT22;39163;52.696;6.758;2022-09-13T17:51:31;19.00;99.90
53274;DHT22;39163;52.696;6.758;2022-09-13T17:54:03;19.00;99.90
53274;DHT22;39163;52.696;6.758;2022-09-13T17:56:36;18.80;99.90
53274;DHT22;39163;52.696;6.758;2022-09-13T17:59:19;18.80;99.90
53274;DHT22;39163;52.696;6.758;2022-09-13T18:01:47;18.70;99.90
53274;DHT22;39163;52.696;6.758;2022-09-13T18:04:16;18.60;99.90
53274;DHT22;39163;52.696;6.758;2022-09-13T18:06:41;18.50;99.90
53274;DHT22;39163;52.696;6.758;2022-09-13T18:09:11;18.40;99.90
53274;DHT22;39163;52.696;6.758;2022-09-13T18:11:38;18.30;99.90
53274;DHT22;39163;52.696;6.758;2022-09-13T18:14:05;18.20;99.90
53274;DHT22;39163;52.696;6.758;2022-09-13T18:16:32;18.20;99.90
53274;DHT22;39163;52.696;6.758;2022-09-13T18:18:59;18.00;99.90
53274;DHT22;39163;52.696;6.758;2022-09-13T18:21:25;18.00;99.90
53274;DHT22;39163;52.696;6.758;2022-09-13T18:23:53;17.90;99.90
53274;DHT22;39163;52.696;6.758;2022-09-13T18:26:23;17.80;99.90
53274;DHT22;39163;52.696;6.758;2022-09-13T18:28:57;17.80;99.90
53274;DHT22;39163;52.696;6.758;2022-09-13T18:31:40;17.70;99.90
53274;DHT22;39163;52.696;6.758;2022-09-13T18:34:10;17.60;99.90
53274;DHT22;39163;52.696;6.758;2022-09-13T18:36:42;17.60;99.90
53274;DHT22;39163;52.696;6.758;2022-09-13T18:39:13;17.50;99.90
53274;DHT22;39163;52.696;6.758;2022-09-13T18:41:49;17.40;99.90
53274;DHT22;39163;52.696;6.758;2022-09-13T18:44:16;17.30;99.90
53274;DHT22;39163;52.696;6.758;2022-09-13T18:46:43;17.30;99.90
53274;DHT22;39163;52.696;6.758;2022-09-13T18:49:09;17.20;99.90
53274;DHT22;39163;52.696;6.758;2022-09-13T18:51:41;17.20;99.90
53274;DHT22;39163;52.696;6.758;2022-09-13T18:54:12;17.10;99.90
53274;DHT22;39163;52.696;6.758;2022-09-13T18:56:39;17.10;99.90
53274;DHT22;39163;52.696;6.758;2022-09-13T18:59:06;17.00;99.90
53274;DHT22;39163;52.696;6.758;2022-09-13T19:01:36;17.00;99.90
53274;DHT22;39163;52.696;6.758;2022-09-13T19:04:16;16.90;99.90
53274;DHT22;39163;52.696;6.758;2022-09-13T19:06:51;16.80;99.90
53274;DHT22;39163;52.696;6.758;2022-09-13T19:09:21;16.80;99.90
53274;DHT22;39163;52.696;6.758;2022-09-13T19:12:07;16.70;99.90
53274;DHT22;39163;52.696;6.758;2022-09-13T19:14:33;16.60;99.90
53274;DHT22;39163;52.696;6.758;2022-09-13T19:17:09;16.50;99.90
53274;DHT22;39163;52.696;6.758;2022-09-13T19:19:57;16.50;99.90
53274;DHT22;39163;52.696;6.758;2022-09-13T19:22:52;16.40;99.90
53274;DHT22;39163;52.696;6.758;2022-09-13T19:25:45;16.40;99.90
53274;DHT22;39163;52.696;6.758;2022-09-13T19:28:45;16.30;99.90
53274;DHT22;39163;52.696;6.758;2022-09-13T19:31:50;16.20;99.90
53274;DHT22;39163;52.696;6.758;2022-09-13T19:34:42;16.20;99.90
53274;DHT22;39163;52.696;6.758;2022-09-13T19:37:14;16.10;99.90
53274;DHT22;39163;52.696;6.758;2022-09-13T19:39:45;16.00;99.90
53274;DHT22;39163;52.696;6.758;2022-09-13T19:42:27;15.90;99.90
53274;DHT22;39163;52.696;6.758;2022-09-13T19:45:24;15.80;99.90
53274;DHT22;39163;52.696;6.758;2022-09-13T19:48:22;15.80;99.90
53274;DHT22;39163;52.696;6.758;2022-09-13T19:50:54;15.80;99.90
53274;DHT22;39163;52.696;6.758;2022-09-13T19:53:49;15.70;99.90
53274;DHT22;39163;52.696;6.758;2022-09-13T19:56:20;15.70;99.90
53274;DHT22;39163;52.696;6.758;2022-09-13T19:58:46;15.70;99.90
53274;DHT22;39163;52.696;6.758;2022-09-13T20:01:16;15.70;99.90
53274;DHT22;39163;52.696;6.758;2022-09-13T20:03:50;15.60;99.90
53274;DHT22;39163;52.696;6.758;2022-09-13T20:09:30;15.60;99.90
53274;DHT22;39163;52.696;6.758;2022-09-13T20:11:59;15.60;99.90
53274;DHT22;39163;52.696;6.758;2022-09-13T20:17:34;15.50;99.90
53274;DHT22;39163;52.696;6.758;2022-09-13T20:20:11;15.40;99.90
53274;DHT22;39163;52.696;6.758;2022-09-13T20:22:47;15.40;99.90
53274;DHT22;39163;52.696;6.758;2022-09-13T20:25:26;15.40;99.90
53274;DHT22;39163;52.696;6.758;2022-09-13T20:28:04;15.30;99.90
53274;DHT22;39163;52.696;6.758;2022-09-13T20:30:38;15.30;99.90
53274;DHT22;39163;52.696;6.758;2022-09-13T20:33:37;15.30;99.90
53274;DHT22;39163;52.696;6.758;2022-09-13T20:36:28;15.30;99.90
53274;DHT22;39163;52.696;6.758;2022-09-13T20:39:31;15.20;99.90
53274;DHT22;39163;52.696;6.758;2022-09-13T20:42:20;15.20;99.90
53274;DHT22;39163;52.696;6.758;2022-09-13T20:44:56;15.20;99.90
53274;DHT22;39163;52.696;6.758;2022-09-13T20:51:21;15.10;99.90
53274;DHT22;39163;52.696;6.758;2022-09-13T20:53:57;15.10;99.90
53274;DHT22;39163;52.696;6.758;2022-09-13T20:56:25;15.10;99.90
53274;DHT22;39163;52.696;6.758;2022-09-13T20:59:01;15.10;99.90
53274;DHT22;39163;52.696;6.758;2022-09-13T21:05:39;15.10;99.90
53274;DHT22;39163;52.696;6.758;2022-09-13T21:08:14;15.00;99.90
53274;DHT22;39163;52.696;6.758;2022-09-13T21:11:03;15.00;99.90
53274;DHT22;39163;52.696;6.758;2022-09-13T21:13:37;14.90;99.90
53274;DHT22;39163;52.696;6.758;2022-09-13T21:19:43;14.80;99.90
53274;DHT22;39163;52.696;6.758;2022-09-13T21:22:18;14.80;99.90
53274;DHT22;39163;52.696;6.758;2022-09-13T21:25:23;14.80;99.90
53274;DHT22;39163;52.696;6.758;2022-09-13T21:27:53;14.70;99.90
53274;DHT22;39163;52.696;6.758;2022-09-13T21:30:18;14.70;99.90
53274;DHT22;39163;52.696;6.758;2022-09-13T21:32:44;14.70;99.90
53274;DHT22;39163;52.696;6.758;2022-09-13T21:35:12;14.70;99.90
53274;DHT22;39163;52.696;6.758;2022-09-13T21:37:38;14.60;99.90
53274;DHT22;39163;52.696;6.758;2022-09-13T21:40:04;14.60;99.90
53274;DHT22;39163;52.696;6.758;2022-09-13T21:42:33;14.60;99.90
53274;DHT22;39163;52.696;6.758;2022-09-13T21:45:00;14.50;99.90
53274;DHT22;39163;52.696;6.758;2022-09-13T21:47:30;14.50;99.90
53274;DHT22;39163;52.696;6.758;2022-09-13T21:49:56;14.50;99.90
53274;DHT22;39163;52.696;6.758;2022-09-13T21:52:21;14.50;99.90
53274;DHT22;39163;52.696;6.758;2022-09-13T21:54:47;14.50;99.90
53274;DHT22;39163;52.696;6.758;2022-09-13T21:57:13;14.50;99.90
53274;DHT22;39163;52.696;6.758;2022-09-13T21:59:39;14.40;99.90
53274;DHT22;39163;52.696;6.758;2022-09-13T22:02:07;14.40;99.90
53274;DHT22;39163;52.696;6.758;2022-09-13T22:04:36;14.40;99.90
53274;DHT22;39163;52.696;6.758;2022-09-13T22:07:02;14.30;99.90
53274;DHT22;39163;52.696;6.758;2022-09-13T22:09:27;14.30;99.90
53274;DHT22;39163;52.696;6.758;2022-09-13T22:11:56;14.20;99.90
53274;DHT22;39163;52.696;6.758;2022-09-13T22:14:22;14.20;99.90
53274;DHT22;39163;52.696;6.758;2022-09-13T22:16:48;14.20;99.90
53274;DHT22;39163;52.696;6.758;2022-09-13T22:19:21;14.20;99.90
53274;DHT22;39163;52.696;6.758;2022-09-13T22:21:51;14.20;99.90
53274;DHT22;39163;52.696;6.758;2022-09-13T22:24:19;14.10;99.90
53274;DHT22;39163;52.696;6.758;2022-09-13T22:26:49;14.20;99.90
53274;DHT22;39163;52.696;6.758;2022-09-13T22:29:18;14.10;99.90
53274;DHT22;39163;52.696;6.758;2022-09-13T22:31:47;14.10;99.90
53274;DHT22;39163;52.696;6.758;2022-09-13T22:38:20;14.10;99.90
53274;DHT22;39163;52.696;6.758;2022-09-13T22:40:57;14.10;99.90
53274;DHT22;39163;52.696;6.758;2022-09-13T22:43:24;14.10;99.90
53274;DHT22;39163;52.696;6.758;2022-09-13T22:45:59;14.10;99.90
53274;DHT22;39163;52.696;6.758;2022-09-13T22:48:25;14.00;99.90
53274;DHT22;39163;52.696;6.758;2022-09-13T22:51:00;14.00;99.90
53274;DHT22;39163;52.696;6.758;2022-09-13T22:56:17;14.00;99.90
53274;DHT22;39163;52.696;6.758;2022-09-13T22:58:46;14.00;99.90
53274;DHT22;39163;52.696;6.758;2022-09-13T23:01:15;14.00;99.90
53274;DHT22;39163;52.696;6.758;2022-09-13T23:04:33;13.90;99.90
53274;DHT22;39163;52.696;6.758;2022-09-13T23:07:10;14.00;99.90
53274;DHT22;39163;52.696;6.758;2022-09-13T23:10:35;13.90;99.90
53274;DHT22;39163;52.696;6.758;2022-09-13T23:13:22;13.90;99.90
53274;DHT22;39163;52.696;6.758;2022-09-13T23:15:54;13.80;99.90
53274;DHT22;39163;52.696;6.758;2022-09-13T23:18:37;13.80;99.90
53274;DHT22;39163;52.696;6.758;2022-09-13T23:21:21;13.80;99.90
53274;DHT22;39163;52.696;6.758;2022-09-13T23:24:17;13.70;99.90
53274;DHT22;39163;52.696;6.758;2022-09-13T23:30:06;13.70;99.90
53274;DHT22;39163;52.696;6.758;2022-09-13T23:32:32;13.50;99.90
53274;DHT22;39163;52.696;6.758;2022-09-13T23:35:03;13.50;99.90
53274;DHT22;39163;52.696;6.758;2022-09-13T23:37:55;13.50;99.90
53274;DHT22;39163;52.696;6.758;2022-09-13T23:43:47;13.40;99.90
53274;DHT22;39163;52.696;6.758;2022-09-13T23:46:16;13.30;99.90
53274;DHT22;39163;52.696;6.758;2022-09-13T23:48:49;13.30;99.90
53274;DHT22;39163;52.696;6.758;2022-09-13T23:51:23;13.30;99.90
53274;DHT22;39163;52.696;6.758;2022-09-13T23:53:52;13.30;99.90
53274;DHT22;39163;52.696;6.758;2022-09-13T23:56:28;13.20;99.90
53274;DHT22;39163;52.696;6.758;2022-09-13T23:58:56;13.20;99.90
